createdAt,value
2023-02-12T00:00:58.527Z,32.73
2023-02-12T00:03:26.526Z,34.40
2023-02-12T00:05:54.624Z,34.83
2023-02-12T00:08:24.023Z,34.50
2023-02-12T00:10:52.050Z,33.70
2023-02-12T00:13:19.952Z,34.17
2023-02-12T00:15:47.900Z,34.20
2023-02-12T00:18:15.873Z,33.53
2023-02-12T00:20:43.744Z,34.60
2023-02-12T00:23:12.334Z,33.60
2023-02-12T00:25:43.797Z,34.63
2023-02-12T00:28:11.720Z,33.63
2023-02-12T00:30:39.683Z,35.33
2023-02-12T00:33:07.659Z,34.90
2023-02-12T00:35:35.564Z,35.80
2023-02-12T00:38:03.617Z,34.30
2023-02-12T00:40:31.776Z,35.20
2023-02-12T00:43:01.018Z,35.93
2023-02-12T00:45:28.934Z,36.97
2023-02-12T00:47:56.839Z,35.37
2023-02-12T00:50:24.714Z,35.53
2023-02-12T00:52:52.635Z,35.17
2023-02-12T00:55:20.752Z,34.93
2023-02-12T00:57:48.675Z,36.00
2023-02-12T01:00:18.680Z,35.37
2023-02-12T01:02:46.639Z,35.10
2023-02-12T01:05:14.626Z,34.57
2023-02-12T01:07:42.557Z,35.40
2023-02-12T01:10:10.916Z,34.60
2023-02-12T01:12:38.800Z,36.43
2023-02-12T01:15:07.205Z,34.90
2023-02-12T01:17:36.441Z,35.90
2023-02-12T01:20:07.140Z,35.23
2023-02-12T01:22:35.756Z,34.90
2023-02-12T01:25:03.664Z,35.37
2023-02-12T01:27:31.770Z,35.07
2023-02-12T01:29:59.678Z,35.30
2023-02-12T01:32:27.722Z,34.33
2023-02-12T01:34:57.037Z,35.40
2023-02-12T01:37:24.967Z,34.80
2023-02-12T01:39:52.837Z,35.30
2023-02-12T01:42:20.974Z,35.33
2023-02-12T01:45:22.381Z,34.37
2023-02-12T01:47:50.307Z,34.97
2023-02-12T01:50:22.143Z,36.60
2023-02-12T01:52:54.581Z,34.40
2023-02-12T01:55:22.831Z,34.70
2023-02-12T01:57:51.110Z,35.13
2023-02-12T02:00:22.965Z,34.77
2023-02-12T02:02:54.947Z,34.53
2023-02-12T02:05:40.084Z,34.50
2023-02-12T02:08:08.135Z,34.50
2023-02-12T02:10:36.028Z,34.30
2023-02-12T02:13:21.836Z,33.80
2023-02-12T02:15:53.692Z,34.30
2023-02-12T02:18:25.509Z,34.70
2023-02-12T02:21:19.929Z,34.73
2023-02-12T02:24:16.846Z,34.27
2023-02-12T02:27:00.767Z,33.67
2023-02-12T02:29:48.813Z,33.60
2023-02-12T02:32:23.596Z,34.30
2023-02-12T02:34:58.257Z,34.37
2023-02-12T02:37:32.516Z,34.07
2023-02-12T02:40:06.588Z,34.60
2023-02-12T02:42:40.182Z,33.97
2023-02-12T02:45:13.147Z,34.30
2023-02-12T02:47:46.746Z,33.53
2023-02-12T02:50:18.867Z,33.80
2023-02-12T02:52:51.320Z,34.10
2023-02-12T02:55:21.460Z,33.27
2023-02-12T02:57:53.028Z,32.87
2023-02-12T03:00:25.215Z,33.47
2023-02-12T03:02:59.371Z,35.00
2023-02-12T03:05:32.294Z,33.37
2023-02-12T03:08:04.626Z,34.40
2023-02-12T03:10:37.497Z,33.37
2023-02-12T03:13:10.322Z,33.97
2023-02-12T03:15:43.757Z,34.00
2023-02-12T03:18:20.313Z,32.90
2023-02-12T03:20:53.314Z,33.13
2023-02-12T03:23:26.618Z,33.10
2023-02-12T03:25:58.846Z,32.20
2023-02-12T03:28:30.936Z,32.60
2023-02-12T03:31:08.416Z,32.37
2023-02-12T03:33:45.015Z,31.63
2023-02-12T03:36:26.398Z,31.67
2023-02-12T03:38:56.435Z,31.43
2023-02-12T03:41:28.162Z,31.47
2023-02-12T03:44:00.829Z,30.83
2023-02-12T03:46:36.368Z,30.33
2023-02-12T03:49:11.538Z,30.70
2023-02-12T03:51:41.712Z,29.30
2023-02-12T03:54:11.692Z,29.23
2023-02-12T03:56:43.846Z,29.83
2023-02-12T03:59:11.885Z,28.70
2023-02-12T04:01:39.860Z,27.83
2023-02-12T04:04:10.769Z,29.50
2023-02-12T04:06:38.970Z,29.97
2023-02-12T04:09:09.421Z,29.50
2023-02-12T04:11:48.166Z,28.90
2023-02-12T04:14:25.810Z,28.53
2023-02-12T04:17:04.144Z,29.27
2023-02-12T04:19:41.634Z,28.80
2023-02-12T04:22:24.636Z,31.47
2023-02-12T04:25:01.602Z,28.53
2023-02-12T04:27:38.067Z,29.60
2023-02-12T04:30:11.237Z,28.67
2023-02-12T04:32:44.175Z,29.20
2023-02-12T04:35:21.256Z,29.07
2023-02-12T04:37:53.419Z,29.70
2023-02-12T04:40:22.713Z,29.33
2023-02-12T04:42:53.303Z,29.00
2023-02-12T04:45:24.877Z,28.17
2023-02-12T04:47:53.141Z,29.43
2023-02-12T04:50:22.711Z,28.70
2023-02-12T04:52:50.774Z,28.63
2023-02-12T04:55:19.239Z,29.40
2023-02-12T04:57:47.165Z,27.77
2023-02-12T05:00:16.297Z,28.33
2023-02-12T05:02:44.189Z,28.80
2023-02-12T05:05:12.168Z,28.87
2023-02-12T05:07:41.428Z,29.20
2023-02-12T05:10:10.286Z,28.90
2023-02-12T05:12:38.413Z,29.20
2023-02-12T05:15:06.713Z,29.27
2023-02-12T05:17:34.647Z,31.23
2023-02-12T05:20:02.545Z,29.37
2023-02-12T05:22:30.501Z,29.00
2023-02-12T05:24:59.772Z,29.03
2023-02-12T05:27:27.658Z,29.40
2023-02-12T05:29:56.811Z,29.70
2023-02-12T05:32:24.900Z,28.97
2023-02-12T05:34:52.767Z,27.60
2023-02-12T05:37:20.656Z,28.80
2023-02-12T05:39:50.310Z,28.37
2023-02-12T05:42:19.555Z,27.80
2023-02-12T05:44:47.426Z,27.90
2023-02-12T05:47:15.472Z,28.30
2023-02-12T05:49:43.785Z,28.10
2023-02-12T05:52:11.666Z,28.07
2023-02-12T05:54:39.553Z,28.17
2023-02-12T05:57:08.122Z,29.37
2023-02-12T05:59:37.369Z,28.30
2023-02-12T06:02:05.264Z,27.73
2023-02-12T06:04:33.169Z,27.80
2023-02-12T06:07:01.856Z,28.00
2023-02-12T06:09:29.773Z,26.97
2023-02-12T06:11:57.648Z,27.00
2023-02-12T06:14:25.557Z,27.90
2023-02-12T06:16:54.841Z,27.83
2023-02-12T06:19:23.636Z,27.03
2023-02-12T06:21:51.580Z,26.33
2023-02-12T06:24:19.584Z,27.20
2023-02-12T06:26:50.315Z,27.30
2023-02-12T06:29:18.686Z,27.57
2023-02-12T06:31:46.747Z,28.73
2023-02-12T06:34:18.040Z,27.60
2023-02-12T06:36:47.630Z,26.97
2023-02-12T06:39:17.103Z,26.97
2023-02-12T06:41:45.137Z,28.10
2023-02-12T06:44:14.197Z,27.97
2023-02-12T06:46:42.145Z,27.37
2023-02-12T06:49:13.204Z,26.50
2023-02-12T06:51:42.759Z,27.60
2023-02-12T06:54:14.845Z,27.00
2023-02-12T06:56:42.776Z,27.97
2023-02-12T06:59:15.110Z,27.77
2023-02-12T07:01:43.400Z,27.40
2023-02-12T07:04:12.359Z,27.10
2023-02-12T07:06:40.389Z,25.17
2023-02-12T07:09:09.807Z,24.93
2023-02-12T07:11:38.829Z,24.73
2023-02-12T07:14:07.355Z,26.13
2023-02-12T07:16:35.442Z,25.83
2023-02-12T07:19:03.491Z,25.53
2023-02-12T07:21:32.041Z,25.20
2023-02-12T07:24:00.090Z,23.90
2023-02-12T07:26:29.495Z,24.93
2023-02-12T07:28:59.257Z,24.90
2023-02-12T07:31:29.294Z,24.87
2023-02-12T07:33:58.846Z,25.37
2023-02-12T07:36:31.602Z,25.07
2023-02-12T07:39:01.515Z,24.60
2023-02-12T07:41:32.028Z,25.27
2023-02-12T07:44:03.608Z,25.43
2023-02-12T07:46:33.735Z,25.37
2023-02-12T07:49:05.443Z,24.80
2023-02-12T07:51:34.951Z,24.73
2023-02-12T07:54:03.437Z,24.23
2023-02-12T07:56:35.365Z,25.00
2023-02-12T07:59:06.019Z,24.07
2023-02-12T08:01:36.447Z,24.63
2023-02-12T08:04:06.476Z,25.00
2023-02-12T08:06:36.720Z,24.50
2023-02-12T08:09:07.182Z,25.10
2023-02-12T08:11:37.986Z,24.30
2023-02-12T08:14:06.637Z,24.63
2023-02-12T08:16:38.772Z,27.20
2023-02-12T08:19:17.609Z,25.10
2023-02-12T08:21:50.242Z,24.23
2023-02-12T08:24:19.284Z,24.50
2023-02-12T08:26:48.704Z,25.20
2023-02-12T08:29:18.701Z,25.30
2023-02-12T08:31:48.699Z,26.03
2023-02-12T08:34:19.003Z,24.77
2023-02-12T08:36:48.362Z,25.13
2023-02-12T08:39:17.289Z,25.30
2023-02-12T08:41:46.184Z,25.20
2023-02-12T08:44:16.752Z,25.13
2023-02-12T08:46:47.048Z,25.50
2023-02-12T08:49:17.037Z,25.10
2023-02-12T08:51:48.637Z,24.37
2023-02-12T08:54:18.612Z,24.93
2023-02-12T08:56:47.174Z,24.80
2023-02-12T08:59:18.097Z,24.80
2023-02-12T09:01:46.724Z,24.20
2023-02-12T09:04:18.199Z,24.30
2023-02-12T09:06:47.579Z,24.13
2023-02-12T09:09:16.871Z,22.00
2023-02-12T09:11:47.133Z,22.43
2023-02-12T09:14:24.683Z,22.30
2023-02-12T09:16:58.736Z,22.47
2023-02-12T09:19:28.694Z,22.20
2023-02-12T09:21:58.840Z,21.60
2023-02-12T09:24:29.228Z,21.33
2023-02-12T09:26:59.372Z,21.60
2023-02-12T09:29:31.332Z,21.23
2023-02-12T09:31:59.874Z,21.70
2023-02-12T09:34:28.577Z,20.77
2023-02-12T09:36:57.179Z,22.50
2023-02-12T09:39:27.662Z,20.80
2023-02-12T09:42:24.972Z,20.80
2023-02-12T09:45:03.832Z,21.50
2023-02-12T09:47:37.743Z,20.70
2023-02-12T09:50:25.233Z,20.60
2023-02-12T09:52:57.041Z,21.67
2023-02-12T09:55:30.177Z,20.63
2023-02-12T09:57:58.852Z,19.50
2023-02-12T10:00:31.693Z,20.40
2023-02-12T10:03:05.424Z,19.77
2023-02-12T10:05:39.193Z,20.77
2023-02-12T10:08:29.379Z,20.13
2023-02-12T10:11:13.536Z,19.27
2023-02-12T10:13:49.632Z,19.40
2023-02-12T10:16:34.353Z,19.73
2023-02-12T10:19:18.917Z,20.17
2023-02-12T10:21:58.080Z,18.73
2023-02-12T10:24:42.186Z,19.10
2023-02-12T10:27:16.420Z,19.37
2023-02-12T10:29:47.539Z,20.17
2023-02-12T10:32:24.829Z,19.40
2023-02-12T10:34:53.718Z,19.60
2023-02-12T10:37:29.353Z,18.93
2023-02-12T10:40:02.577Z,19.00
2023-02-12T10:42:39.787Z,19.63
2023-02-12T10:45:14.647Z,20.00
2023-02-12T10:47:45.055Z,18.57
2023-02-12T10:50:22.325Z,19.10
2023-02-12T10:52:56.971Z,19.70
2023-02-12T10:55:28.746Z,19.93
2023-02-12T10:57:59.233Z,18.67
2023-02-12T11:00:31.500Z,19.10
2023-02-12T11:03:07.840Z,19.00
2023-02-12T11:05:37.654Z,18.63
2023-02-12T11:08:06.861Z,18.53
2023-02-12T11:10:40.221Z,18.83
2023-02-12T11:13:24.205Z,18.23
2023-02-12T11:15:52.731Z,19.67
2023-02-12T11:18:25.988Z,18.20
2023-02-12T11:20:57.404Z,18.30
2023-02-12T11:23:29.304Z,18.30
2023-02-12T11:26:00.643Z,18.37
2023-02-12T11:28:29.522Z,18.27
2023-02-12T11:30:59.756Z,19.53
2023-02-12T11:33:32.570Z,18.90
2023-02-12T11:36:06.949Z,18.20
2023-02-12T11:38:38.705Z,18.70
2023-02-12T11:41:20.038Z,20.90
2023-02-12T11:43:48.162Z,18.20
2023-02-12T11:46:22.619Z,18.30
2023-02-12T11:48:53.600Z,18.13
2023-02-12T11:51:26.143Z,17.43
2023-02-12T11:53:56.424Z,17.93
2023-02-12T11:56:24.712Z,17.97
2023-02-12T11:58:53.051Z,17.37
2023-02-12T12:01:25.328Z,18.17
2023-02-12T12:04:04.515Z,18.53
2023-02-12T12:06:37.134Z,18.50
2023-02-12T12:09:13.731Z,18.20
2023-02-12T12:11:51.663Z,18.20
2023-02-12T12:14:26.139Z,18.27
2023-02-12T12:17:16.480Z,18.07
2023-02-12T12:19:55.747Z,18.33
2023-02-12T12:22:41.805Z,18.17
2023-02-12T12:25:19.557Z,18.23
2023-02-12T12:28:08.260Z,17.90
2023-02-12T12:30:58.358Z,19.53
2023-02-12T12:33:34.791Z,18.20
2023-02-12T12:36:39.427Z,18.23
2023-02-12T12:39:18.621Z,17.30
2023-02-12T12:42:03.361Z,17.90
2023-02-12T12:44:52.739Z,17.87
2023-02-12T12:47:29.153Z,18.13
2023-02-12T12:50:18.703Z,17.50
2023-02-12T12:53:10.717Z,18.10
2023-02-12T12:56:00.772Z,17.40
2023-02-12T12:58:41.295Z,17.63
2023-02-12T13:01:40.130Z,17.50
2023-02-12T13:04:33.432Z,17.30
2023-02-12T13:07:19.377Z,17.50
2023-02-12T13:10:01.723Z,17.40
2023-02-12T13:12:39.073Z,17.37
2023-02-12T13:15:19.286Z,17.80
2023-02-12T13:17:55.230Z,18.03
2023-02-12T13:20:32.702Z,16.93
2023-02-12T13:23:04.091Z,17.10
2023-02-12T13:25:41.659Z,19.90
2023-02-12T13:28:16.806Z,17.03
2023-02-12T13:30:48.532Z,17.30
2023-02-12T13:33:21.757Z,17.33
2023-02-12T13:35:54.195Z,17.83
2023-02-12T13:38:27.069Z,18.07
2023-02-12T13:41:01.447Z,16.73
2023-02-12T13:43:44.415Z,17.60
2023-02-12T13:46:20.177Z,17.00
2023-02-12T13:49:06.841Z,17.00
2023-02-12T13:51:43.421Z,16.60
2023-02-12T13:54:26.359Z,17.20
2023-02-12T13:56:58.934Z,17.27
2023-02-12T13:59:41.728Z,17.20
2023-02-12T14:02:49.742Z,17.00
2023-02-12T14:05:29.074Z,17.03
2023-02-12T14:08:00.493Z,18.30
2023-02-12T14:10:32.685Z,16.93
2023-02-12T14:13:17.530Z,17.30
2023-02-12T14:15:48.869Z,18.00
2023-02-12T14:18:35.215Z,17.13
2023-02-12T14:21:46.317Z,17.67
2023-02-12T14:24:48.493Z,16.90
2023-02-12T14:27:30.525Z,16.87
2023-02-12T14:30:25.774Z,17.50
2023-02-12T14:33:12.008Z,17.30
2023-02-12T14:35:41.397Z,17.10
2023-02-12T14:38:47.890Z,17.40
2023-02-12T14:41:37.511Z,17.00
2023-02-12T14:44:42.030Z,16.33
2023-02-12T14:47:30.496Z,17.27
2023-02-12T14:50:02.556Z,16.43
2023-02-12T14:52:33.439Z,17.47
2023-02-12T14:55:03.818Z,16.57
2023-02-12T14:57:34.446Z,16.90
2023-02-12T15:00:05.527Z,16.93
2023-02-12T15:02:37.362Z,16.67
2023-02-12T15:05:18.053Z,16.50
2023-02-12T15:07:51.270Z,16.63
2023-02-12T15:10:22.505Z,16.67
2023-02-12T15:12:58.759Z,17.37
2023-02-12T15:15:37.445Z,17.00
2023-02-12T15:18:15.820Z,17.17
2023-02-12T15:20:49.950Z,16.33
2023-02-12T15:23:34.272Z,16.57
2023-02-12T15:26:04.017Z,16.80
2023-02-12T15:28:35.465Z,17.00
2023-02-12T15:31:06.292Z,16.23
2023-02-12T15:33:37.663Z,16.70
2023-02-12T15:36:08.194Z,16.40
2023-02-12T15:38:38.160Z,16.10
2023-02-12T15:41:07.533Z,16.10
2023-02-12T15:43:42.142Z,15.67
2023-02-12T15:46:17.927Z,16.33
2023-02-12T15:48:47.713Z,15.87
2023-02-12T15:51:21.172Z,17.13
2023-02-12T15:53:49.390Z,16.47
2023-02-12T15:56:20.363Z,17.00
2023-02-12T15:58:52.360Z,17.20
2023-02-12T16:01:25.454Z,16.70
2023-02-12T16:03:57.572Z,16.17
2023-02-12T16:06:27.934Z,16.50
2023-02-12T16:09:00.177Z,15.90
2023-02-12T16:11:30.332Z,16.20
2023-02-12T16:14:01.755Z,15.63
2023-02-12T16:16:31.636Z,16.10
2023-02-12T16:19:18.764Z,16.30
2023-02-12T16:21:49.323Z,15.47
2023-02-12T16:24:26.405Z,16.70
2023-02-12T16:26:55.425Z,16.20
2023-02-12T16:29:23.778Z,18.20
2023-02-12T16:32:01.126Z,16.60
2023-02-12T16:34:33.642Z,16.93
2023-02-12T16:37:01.746Z,17.03
2023-02-12T16:40:18.605Z,16.40
2023-02-12T16:43:04.072Z,15.53
2023-02-12T16:45:37.468Z,16.30
2023-02-12T16:48:23.416Z,16.67
2023-02-12T16:50:54.930Z,16.40
2023-02-12T16:53:43.041Z,17.43
2023-02-12T16:56:18.096Z,16.47
2023-02-12T16:58:48.368Z,17.00
2023-02-12T17:01:23.491Z,17.20
2023-02-12T17:03:52.161Z,17.40
2023-02-12T17:06:23.921Z,17.30
2023-02-12T17:08:52.487Z,17.63
2023-02-12T17:11:21.527Z,18.53
2023-02-12T17:13:51.005Z,19.40
2023-02-12T17:16:30.320Z,17.57
2023-02-12T17:18:59.672Z,17.50
2023-02-12T17:21:31.807Z,17.17
2023-02-12T17:24:00.051Z,18.67
2023-02-12T17:26:28.249Z,17.90
2023-02-12T17:28:56.569Z,17.90
2023-02-12T17:31:25.098Z,17.77
2023-02-12T17:33:53.171Z,18.40
2023-02-12T17:36:21.241Z,17.70
2023-02-12T17:38:51.150Z,19.37
2023-02-12T17:41:19.576Z,17.63
2023-02-12T17:43:47.621Z,18.37
2023-02-12T17:46:19.713Z,18.00
2023-02-12T17:48:47.901Z,17.43
2023-02-12T17:51:16.615Z,18.43
2023-02-12T17:53:45.150Z,18.60
2023-02-12T17:56:15.768Z,18.93
2023-02-12T17:58:44.246Z,18.40
2023-02-12T18:01:15.475Z,18.37
2023-02-12T18:03:43.785Z,17.50
2023-02-12T18:06:14.113Z,17.97
2023-02-12T18:08:42.288Z,18.30
2023-02-12T18:11:12.325Z,17.17
2023-02-12T18:13:42.540Z,17.80
2023-02-12T18:16:11.853Z,17.50
2023-02-12T18:18:41.341Z,17.23
2023-02-12T18:21:10.804Z,17.73
2023-02-12T18:23:39.424Z,18.80
2023-02-12T18:26:08.383Z,18.63
2023-02-12T18:28:37.001Z,18.47
2023-02-12T18:31:07.283Z,18.70
2023-02-12T18:33:37.068Z,18.00
2023-02-12T18:36:07.485Z,17.83
2023-02-12T18:38:36.314Z,19.03
2023-02-12T18:41:08.492Z,18.50
2023-02-12T18:43:37.092Z,17.83
2023-02-12T18:46:12.293Z,17.60
2023-02-12T18:48:41.281Z,17.93
2023-02-12T18:51:13.711Z,17.77
2023-02-12T18:53:41.765Z,17.47
2023-02-12T18:56:11.474Z,17.57
2023-02-12T18:58:41.803Z,17.80
2023-02-12T19:01:18.844Z,17.77
2023-02-12T19:03:48.614Z,19.00
2023-02-12T19:06:17.023Z,17.93
2023-02-12T19:08:45.065Z,18.53
2023-02-12T19:11:14.911Z,18.23
2023-02-12T19:13:43.869Z,17.80
2023-02-12T19:16:14.789Z,18.50
2023-02-12T19:18:44.313Z,17.73
2023-02-12T19:21:16.257Z,17.80
2023-02-12T19:23:45.266Z,18.00
2023-02-12T19:26:15.486Z,19.23
2023-02-12T19:28:44.595Z,18.77
2023-02-12T19:31:15.471Z,17.50
2023-02-12T19:33:45.526Z,18.10
2023-02-12T19:36:15.740Z,18.17
2023-02-12T19:38:44.555Z,19.10
2023-02-12T19:41:15.718Z,18.00
2023-02-12T19:43:44.261Z,17.93
2023-02-12T19:46:14.138Z,19.20
2023-02-12T19:48:42.685Z,18.17
2023-02-12T19:51:15.440Z,19.13
2023-02-12T19:53:43.780Z,18.73
2023-02-12T19:56:12.230Z,19.60
2023-02-12T19:58:40.629Z,19.10
2023-02-12T20:01:10.672Z,20.57
2023-02-12T20:03:39.479Z,19.27
2023-02-12T20:06:10.714Z,19.40
2023-02-12T20:08:41.776Z,18.83
2023-02-12T20:11:11.792Z,20.47
2023-02-12T20:13:40.159Z,19.60
2023-02-12T20:16:10.744Z,19.10
2023-02-12T20:18:39.621Z,19.47
2023-02-12T20:21:12.299Z,19.57
2023-02-12T20:23:41.927Z,19.60
2023-02-12T20:26:11.997Z,19.53
2023-02-12T20:28:40.116Z,20.53
2023-02-12T20:31:12.279Z,21.00
2023-02-12T20:33:41.089Z,20.60
2023-02-12T20:36:11.368Z,19.87
2023-02-12T20:38:41.313Z,21.80
2023-02-12T20:41:11.202Z,19.80
2023-02-12T20:43:39.887Z,20.27
2023-02-12T20:46:09.686Z,20.70
2023-02-12T20:48:37.863Z,19.47
2023-02-12T20:51:06.917Z,19.57
2023-02-12T20:53:36.025Z,19.83
2023-02-12T20:56:07.493Z,21.20
2023-02-12T20:58:35.870Z,20.30
2023-02-12T21:01:08.053Z,20.20
2023-02-12T21:03:36.370Z,20.30
2023-02-12T21:06:05.628Z,20.20
2023-02-12T21:08:35.992Z,19.93
2023-02-12T21:11:07.812Z,21.73
2023-02-12T21:13:35.980Z,20.43
2023-02-12T21:16:09.111Z,19.30
2023-02-12T21:18:37.243Z,18.80
2023-02-12T21:21:07.312Z,19.43
2023-02-12T21:23:36.172Z,20.57
2023-02-12T21:26:07.249Z,19.63
2023-02-12T21:28:36.233Z,19.77
2023-02-12T21:31:09.623Z,21.97
2023-02-12T21:33:38.277Z,20.40
2023-02-12T21:36:08.192Z,20.60
2023-02-12T21:38:37.896Z,21.43
2023-02-12T21:41:12.877Z,20.80
2023-02-12T21:43:42.670Z,20.80
2023-02-12T21:46:11.838Z,21.13
2023-02-12T21:48:40.049Z,20.70
2023-02-12T21:51:16.507Z,20.50
2023-02-12T21:53:44.601Z,20.10
2023-02-12T21:56:14.271Z,21.27
2023-02-12T21:58:42.758Z,20.30
2023-02-12T22:01:12.984Z,19.23
2023-02-12T22:03:41.339Z,19.27
2023-02-12T22:06:09.986Z,20.47
2023-02-12T22:08:38.679Z,20.07
2023-02-12T22:11:08.558Z,19.90
2023-02-12T22:13:39.826Z,20.50
2023-02-12T22:16:11.740Z,20.10
2023-02-12T22:18:40.501Z,20.07
2023-02-12T22:21:13.040Z,20.80
2023-02-12T22:23:42.205Z,23.67
2023-02-12T22:26:13.073Z,20.50
2023-02-12T22:28:44.561Z,20.77
2023-02-12T22:31:14.393Z,19.93
2023-02-12T22:33:42.565Z,19.67
2023-02-12T22:36:11.161Z,20.30
2023-02-12T22:38:40.810Z,20.40
2023-02-12T22:41:10.488Z,20.50
2023-02-12T22:43:40.243Z,20.70
2023-02-12T22:46:11.651Z,19.90
2023-02-12T22:48:40.534Z,20.83
2023-02-12T22:51:12.691Z,19.67
2023-02-12T22:53:40.757Z,19.80
2023-02-12T22:56:09.969Z,19.80
2023-02-12T22:58:38.691Z,20.57
2023-02-12T23:01:07.275Z,20.47
2023-02-12T23:03:37.442Z,20.60
2023-02-12T23:06:07.585Z,20.30
2023-02-12T23:08:36.008Z,20.07
2023-02-12T23:11:06.937Z,20.00
2023-02-12T23:13:35.547Z,21.17
2023-02-12T23:16:04.029Z,20.63
2023-02-12T23:18:32.656Z,20.90
2023-02-12T23:21:02.697Z,20.50
2023-02-12T23:23:30.785Z,20.80
2023-02-12T23:25:58.819Z,21.10
2023-02-12T23:28:26.902Z,20.93
2023-02-12T23:30:55.193Z,21.97
2023-02-12T23:33:23.449Z,21.00
2023-02-12T23:35:51.539Z,20.87
2023-02-12T23:38:20.957Z,21.27
2023-02-12T23:40:49.328Z,20.97
2023-02-12T23:43:17.386Z,20.77
2023-02-12T23:45:46.228Z,20.90
2023-02-12T23:48:14.583Z,21.10
2023-02-12T23:50:42.827Z,20.47
2023-02-12T23:53:11.347Z,20.53
2023-02-12T23:55:41.190Z,20.90
2023-02-12T23:58:10.673Z,20.47
